createdAt,value
2023-01-07T00:01:57.772Z,123.53
2023-01-07T00:06:04.089Z,127.43
2023-01-07T00:10:06.354Z,127.35
2023-01-07T00:14:10.920Z,138.48
2023-01-07T00:18:13.367Z,137.85
2023-01-07T00:22:29.527Z,138.43
2023-01-07T00:26:36.410Z,120.53
2023-01-07T00:30:38.893Z,123.82
2023-01-07T00:34:42.323Z,112.25
2023-01-07T00:38:44.187Z,109.53
2023-01-07T00:42:55.704Z,112.00
2023-01-07T00:46:59.169Z,102.20
2023-01-07T00:51:01.413Z,111.20
2023-01-07T00:55:03.558Z,130.85
2023-01-07T00:59:05.939Z,96.00
2023-01-07T01:03:10.564Z,105.65
2023-01-07T01:07:12.937Z,103.60
2023-01-07T01:11:16.347Z,136.18
2023-01-07T01:15:18.771Z,137.15
2023-01-07T01:19:20.584Z,127.75
2023-01-07T01:23:22.854Z,161.05
2023-01-07T01:27:24.989Z,148.70
2023-01-07T01:31:27.193Z,156.75
2023-01-07T01:35:29.324Z,154.52
2023-01-07T01:39:32.844Z,145.85
2023-01-07T01:43:38.606Z,139.05
2023-01-07T01:47:49.653Z,125.97
2023-01-07T01:52:14.197Z,128.70
2023-01-07T01:56:25.647Z,124.22
2023-01-07T02:00:28.853Z,104.20
2023-01-07T02:04:32.283Z,143.07
2023-01-07T02:08:34.318Z,102.35
2023-01-07T02:12:51.971Z,108.70
2023-01-07T02:17:10.047Z,112.88
2023-01-07T02:21:41.028Z,142.65
2023-01-07T02:26:22.055Z,132.07
2023-01-07T02:30:35.922Z,115.20
2023-01-07T02:35:05.369Z,135.20
2023-01-07T02:39:31.161Z,128.13
2023-01-07T02:43:54.846Z,190.25
2023-01-07T02:48:13.362Z,154.00
2023-01-07T02:52:23.264Z,170.05
2023-01-07T02:56:37.585Z,133.20
2023-01-07T03:01:20.866Z,180.68
2023-01-07T03:05:53.002Z,147.68
2023-01-07T03:10:04.183Z,177.50
2023-01-07T03:18:29.154Z,187.85
2023-01-07T03:22:37.537Z,223.48
2023-01-07T03:26:44.200Z,227.07
2023-01-07T03:30:48.221Z,216.52
2023-01-07T03:34:51.051Z,253.07
2023-01-07T03:38:55.114Z,212.43
2023-01-07T03:42:59.669Z,204.07
2023-01-07T03:47:02.447Z,218.52
2023-01-07T03:51:04.603Z,249.13
2023-01-07T03:55:07.453Z,224.38
2023-01-07T03:59:09.478Z,254.50
2023-01-07T04:03:11.942Z,187.32
2023-01-07T04:07:17.118Z,238.52
2023-01-07T04:11:19.498Z,244.18
2023-01-07T04:15:22.661Z,297.77
2023-01-07T04:19:25.907Z,216.48
2023-01-07T04:23:28.832Z,328.23
2023-01-07T04:27:31.207Z,184.43
2023-01-07T04:31:32.965Z,189.30
2023-01-07T04:35:35.457Z,185.50
2023-01-07T04:39:38.117Z,185.52
2023-01-07T04:43:40.083Z,201.57
2023-01-07T04:47:42.953Z,219.13
2023-01-07T04:51:45.381Z,165.73
2023-01-07T04:55:47.736Z,195.98
2023-01-07T04:59:50.970Z,165.52
2023-01-07T05:03:52.838Z,162.15
2023-01-07T05:07:55.300Z,170.57
2023-01-07T05:11:58.579Z,203.75
2023-01-07T05:16:02.691Z,172.93
2023-01-07T05:20:06.680Z,158.88
2023-01-07T05:24:09.503Z,292.50
2023-01-07T05:28:12.260Z,209.43
2023-01-07T05:32:15.727Z,258.05
2023-01-07T05:36:17.548Z,234.82
2023-01-07T05:40:19.728Z,169.05
2023-01-07T05:44:21.814Z,241.30
2023-01-07T05:48:23.773Z,190.98
2023-01-07T05:52:25.449Z,211.93
2023-01-07T05:56:27.337Z,142.88
2023-01-07T06:00:29.018Z,145.65
2023-01-07T06:04:31.084Z,184.13
2023-01-07T06:08:36.964Z,139.90
2023-01-07T06:12:38.913Z,126.10
2023-01-07T06:16:40.971Z,164.82
2023-01-07T06:20:43.111Z,141.45
2023-01-07T06:24:44.784Z,176.73
2023-01-07T06:28:46.778Z,170.60
2023-01-07T06:32:48.578Z,167.27
2023-01-07T06:36:50.507Z,179.52
2023-01-07T06:40:52.213Z,132.73
2023-01-07T06:44:54.448Z,189.82
2023-01-07T06:48:56.226Z,151.50
2023-01-07T06:52:58.216Z,146.30
2023-01-07T06:56:59.953Z,176.20
2023-01-07T07:01:06.564Z,139.52
2023-01-07T07:05:08.553Z,108.32
2023-01-07T07:09:10.801Z,170.23
2023-01-07T07:13:12.595Z,142.07
2023-01-07T07:17:14.579Z,156.10
2023-01-07T07:21:16.340Z,224.00
2023-01-07T07:25:18.330Z,159.10
2023-01-07T07:29:21.730Z,197.43
2023-01-07T07:33:23.877Z,127.28
2023-01-07T07:37:25.810Z,140.95
2023-01-07T07:41:27.925Z,139.95
2023-01-07T07:45:29.787Z,138.10
2023-01-07T07:49:31.889Z,117.95
2023-01-07T07:53:33.762Z,135.45
2023-01-07T07:57:35.896Z,173.40
2023-01-07T08:01:37.895Z,128.70
2023-01-07T08:05:42.236Z,133.07
2023-01-07T08:09:44.114Z,145.32
2023-01-07T08:13:46.146Z,166.40
2023-01-07T08:17:48.194Z,158.70
2023-01-07T08:21:51.680Z,130.27
2023-01-07T08:25:53.663Z,128.65
2023-01-07T08:29:56.417Z,117.00
2023-01-07T08:33:58.281Z,128.95
2023-01-07T08:38:04.988Z,130.88
2023-01-07T08:42:06.910Z,113.82
2023-01-07T08:46:08.857Z,147.10
2023-01-07T08:50:10.562Z,117.35
2023-01-07T08:54:12.528Z,118.88
2023-01-07T08:58:14.356Z,117.68
2023-01-07T09:02:18.551Z,112.50
2023-01-07T09:06:20.375Z,112.90
2023-01-07T09:10:23.617Z,125.05
2023-01-07T09:14:25.569Z,109.40
2023-01-07T09:18:27.596Z,104.60
2023-01-07T09:22:34.171Z,96.45
2023-01-07T09:26:36.211Z,106.95
2023-01-07T09:30:37.904Z,104.47
2023-01-07T09:34:39.870Z,96.22
2023-01-07T09:38:41.620Z,103.47
2023-01-07T09:43:01.493Z,96.95
2023-01-07T09:47:05.156Z,92.13
2023-01-07T09:51:15.439Z,110.45
2023-01-07T09:55:22.579Z,99.75
2023-01-07T09:59:24.737Z,161.25
2023-01-07T10:03:29.991Z,136.45
2023-01-07T10:07:40.002Z,128.23
2023-01-07T10:12:05.014Z,121.50
2023-01-07T10:16:26.826Z,103.07
2023-01-07T10:20:50.093Z,106.30
2023-01-07T10:24:57.792Z,123.75
2023-01-07T10:29:22.307Z,140.35
2023-01-07T10:33:29.349Z,111.90
2023-01-07T10:37:34.213Z,104.18
2023-01-07T10:41:49.942Z,90.97
2023-01-07T10:46:25.961Z,109.07
2023-01-07T10:51:04.841Z,100.45
2023-01-07T10:55:22.241Z,93.80
2023-01-07T10:59:24.872Z,86.88
2023-01-07T11:03:27.000Z,99.80
2023-01-07T11:07:45.528Z,88.00
2023-01-07T11:15:54.608Z,114.78
2023-01-07T11:19:56.601Z,96.95
2023-01-07T11:23:58.403Z,89.63
2023-01-07T11:28:03.284Z,75.13
2023-01-07T11:32:06.426Z,80.50
2023-01-07T11:36:09.523Z,81.00
2023-01-07T11:40:14.168Z,71.53
2023-01-07T11:44:16.992Z,67.88
2023-01-07T11:48:34.363Z,85.57
2023-01-07T11:52:36.564Z,85.18
2023-01-07T11:56:38.240Z,82.20
2023-01-07T12:00:40.310Z,86.20
2023-01-07T12:04:42.014Z,78.95
2023-01-07T12:08:53.329Z,71.35
2023-01-07T12:12:55.663Z,94.82
2023-01-07T12:17:11.557Z,99.88
2023-01-07T12:21:35.751Z,81.20
2023-01-07T12:25:59.649Z,100.57
2023-01-07T12:30:17.969Z,98.55
2023-01-07T12:34:34.693Z,105.90
2023-01-07T12:38:46.007Z,105.75
2023-01-07T12:42:55.020Z,105.82
2023-01-07T12:47:30.478Z,96.57
2023-01-07T12:51:36.995Z,91.40
2023-01-07T12:55:52.096Z,94.03
2023-01-07T13:00:04.468Z,96.20
2023-01-07T13:04:28.666Z,109.22
2023-01-07T13:08:57.345Z,94.00
2023-01-07T13:13:06.521Z,95.77
2023-01-07T13:17:37.430Z,88.20
2023-01-07T13:21:42.024Z,80.13
2023-01-07T13:26:09.460Z,85.05
2023-01-07T13:30:24.817Z,96.25
2023-01-07T13:34:33.580Z,94.55
2023-01-07T13:38:41.384Z,94.85
2023-01-07T13:42:52.718Z,98.53
2023-01-07T13:46:55.565Z,96.97
2023-01-07T13:51:07.006Z,96.10
2023-01-07T13:55:29.545Z,104.95
2023-01-07T13:59:48.102Z,106.70
2023-01-07T14:04:21.554Z,127.32
2023-01-07T14:08:28.378Z,98.10
2023-01-07T14:12:46.466Z,112.38
2023-01-07T14:17:14.121Z,100.32
2023-01-07T14:21:20.586Z,113.28
2023-01-07T14:25:25.539Z,100.30
2023-01-07T14:29:47.702Z,95.82
2023-01-07T14:34:01.483Z,89.15
2023-01-07T14:38:29.027Z,93.25
2023-01-07T14:42:44.698Z,84.85
2023-01-07T14:46:47.950Z,92.75
2023-01-07T14:51:04.753Z,89.60
2023-01-07T14:55:34.228Z,100.30
2023-01-07T15:00:03.944Z,106.40
2023-01-07T15:04:32.865Z,105.05
2023-01-07T15:09:13.653Z,112.40
2023-01-07T15:13:38.345Z,96.65
2023-01-07T15:17:40.770Z,87.60
2023-01-07T15:21:58.856Z,86.75
2023-01-07T15:26:09.697Z,83.90
2023-01-07T15:30:37.587Z,77.22
2023-01-07T15:34:40.148Z,73.55
2023-01-07T15:38:50.937Z,77.90
2023-01-07T15:42:56.994Z,65.35
2023-01-07T15:46:58.686Z,60.53
2023-01-07T15:51:00.751Z,71.38
2023-01-07T15:55:21.575Z,65.13
2023-01-07T15:59:29.215Z,59.05
2023-01-07T16:03:39.580Z,65.25
2023-01-07T16:07:58.720Z,63.92
2023-01-07T16:12:00.690Z,73.05
2023-01-07T16:16:05.679Z,63.67
2023-01-07T16:20:19.019Z,63.08
2023-01-07T16:24:20.910Z,62.58
2023-01-07T16:28:29.144Z,87.65
2023-01-07T16:32:32.183Z,85.55
2023-01-07T16:36:41.559Z,95.57
2023-01-07T16:40:45.294Z,82.95
2023-01-07T16:44:49.418Z,73.53
2023-01-07T16:49:29.313Z,77.22
2023-01-07T16:57:42.234Z,65.50
2023-01-07T17:01:44.467Z,58.70
2023-01-07T17:06:07.352Z,68.85
2023-01-07T17:10:20.665Z,78.15
2023-01-07T17:14:34.300Z,69.85
2023-01-07T17:18:36.236Z,109.65
2023-01-07T17:22:38.854Z,89.35
2023-01-07T17:26:42.098Z,83.50
2023-01-07T17:30:43.996Z,108.80
2023-01-07T17:34:45.975Z,81.32
2023-01-07T17:38:47.840Z,93.00
2023-01-07T17:43:09.388Z,84.63
2023-01-07T17:47:11.439Z,110.82
2023-01-07T17:51:14.001Z,87.25
2023-01-07T17:55:19.281Z,98.75
2023-01-07T17:59:23.349Z,76.25
2023-01-07T18:03:25.937Z,73.80
2023-01-07T18:07:27.617Z,91.20
2023-01-07T18:11:48.566Z,100.50
2023-01-07T18:15:50.416Z,91.45
2023-01-07T18:19:52.526Z,107.47
2023-01-07T18:23:54.472Z,104.93
2023-01-07T18:27:56.547Z,124.40
2023-01-07T18:31:58.553Z,95.13
2023-01-07T18:36:01.167Z,106.82
2023-01-07T18:40:04.354Z,142.52
2023-01-07T18:44:06.755Z,120.57
2023-01-07T18:48:08.604Z,142.32
2023-01-07T18:52:12.783Z,132.70
2023-01-07T18:56:14.996Z,142.63
2023-01-07T19:00:17.414Z,135.70
2023-01-07T19:04:19.138Z,144.48
2023-01-07T19:08:21.237Z,139.15
2023-01-07T19:12:23.165Z,212.98
2023-01-07T19:16:25.331Z,150.70
2023-01-07T19:20:27.019Z,210.98
2023-01-07T19:24:29.175Z,164.40
2023-01-07T19:28:32.671Z,145.63
2023-01-07T19:32:34.752Z,176.45
2023-01-07T19:36:36.754Z,166.98
2023-01-07T19:40:45.442Z,157.65
2023-01-07T19:44:47.071Z,146.68
2023-01-07T19:48:49.550Z,146.80
2023-01-07T19:52:51.280Z,142.27
2023-01-07T19:56:54.160Z,149.18
2023-01-07T20:01:04.714Z,159.65
2023-01-07T20:05:07.209Z,143.25
2023-01-07T20:09:11.275Z,152.55
2023-01-07T20:13:13.065Z,146.88
2023-01-07T20:17:15.035Z,154.32
2023-01-07T20:21:20.405Z,166.32
2023-01-07T20:25:22.127Z,159.05
2023-01-07T20:29:24.179Z,147.48
2023-01-07T20:33:26.096Z,162.18
2023-01-07T20:37:28.196Z,155.05
2023-01-07T20:41:30.173Z,150.80
2023-01-07T20:45:33.427Z,157.05
2023-01-07T20:49:35.402Z,148.30
2023-01-07T20:53:37.731Z,164.68
2023-01-07T20:57:39.455Z,158.10
2023-01-07T21:01:41.863Z,165.73
2023-01-07T21:05:45.901Z,154.07
2023-01-07T21:09:47.601Z,213.88
2023-01-07T21:13:50.698Z,163.75
2023-01-07T21:17:53.856Z,187.00
2023-01-07T21:21:55.787Z,166.45
2023-01-07T21:25:57.680Z,144.18
2023-01-07T21:29:59.631Z,144.25
2023-01-07T21:34:01.428Z,129.65
2023-01-07T21:38:03.576Z,156.90
2023-01-07T21:42:06.166Z,146.50
2023-01-07T21:46:08.922Z,124.65
2023-01-07T21:50:10.792Z,144.35
2023-01-07T21:54:12.810Z,133.07
2023-01-07T21:58:14.536Z,138.48
2023-01-07T22:02:18.699Z,125.85
2023-01-07T22:06:26.023Z,112.82
2023-01-07T22:10:27.692Z,120.90
2023-01-07T22:14:29.669Z,123.07
2023-01-07T22:18:31.829Z,113.43
2023-01-07T22:22:33.462Z,110.35
2023-01-07T22:26:36.229Z,118.72
2023-01-07T22:30:43.930Z,115.40
2023-01-07T22:34:45.968Z,103.18
2023-01-07T22:38:48.644Z,99.30
2023-01-07T22:42:55.897Z,110.53
2023-01-07T22:46:58.135Z,110.53
2023-01-07T22:51:27.023Z,101.03
2023-01-07T22:55:29.267Z,93.70
2023-01-07T22:59:31.063Z,99.10
2023-01-07T23:03:33.235Z,91.63
2023-01-07T23:07:34.952Z,94.38
2023-01-07T23:11:48.889Z,93.97
2023-01-07T23:15:50.495Z,95.75
2023-01-07T23:19:52.512Z,99.40
2023-01-07T23:23:54.488Z,109.60
2023-01-07T23:27:56.494Z,104.45
2023-01-07T23:31:58.720Z,113.15
2023-01-07T23:36:02.886Z,103.22
2023-01-07T23:40:06.854Z,98.80
2023-01-07T23:44:08.848Z,110.40
2023-01-07T23:48:10.528Z,110.70
2023-01-07T23:52:12.526Z,102.38
2023-01-07T23:56:18.694Z,118.57
